createdAt,value
2022-11-02T00:04:08.178Z,100.00
2022-11-02T00:09:13.214Z,100.00
2022-11-02T00:14:16.957Z,100.00
2022-11-02T00:19:21.174Z,100.00
2022-11-02T00:24:26.450Z,100.00
2022-11-02T00:29:33.845Z,100.00
2022-11-02T00:34:37.906Z,100.00
2022-11-02T00:39:43.259Z,100.00
2022-11-02T00:44:47.070Z,100.00
2022-11-02T00:49:50.783Z,100.00
2022-11-02T00:54:56.217Z,100.00
2022-11-02T01:00:00.354Z,100.00
2022-11-02T01:05:04.206Z,100.00
2022-11-02T01:10:11.409Z,100.00
2022-11-02T01:15:15.985Z,100.00
2022-11-02T01:20:19.694Z,100.00
2022-11-02T01:25:24.764Z,100.00
2022-11-02T01:30:28.454Z,100.00
2022-11-02T01:35:32.151Z,100.00
2022-11-02T01:40:38.989Z,100.00
2022-11-02T01:45:42.670Z,100.00
2022-11-02T01:50:47.327Z,100.00
2022-11-02T01:55:53.206Z,100.00
2022-11-02T02:00:57.473Z,100.00
2022-11-02T02:06:07.826Z,100.00
2022-11-02T02:11:34.061Z,100.00
2022-11-02T02:16:51.143Z,100.00
2022-11-02T02:22:11.811Z,100.00
2022-11-02T02:27:21.467Z,100.00
2022-11-02T02:32:34.697Z,100.00
2022-11-02T02:37:45.897Z,100.00
2022-11-02T02:42:55.533Z,100.00
2022-11-02T02:48:05.684Z,100.00
2022-11-02T02:53:11.100Z,100.00
2022-11-02T02:58:21.126Z,100.00
2022-11-02T03:03:28.349Z,100.00
2022-11-02T03:08:34.136Z,100.00
2022-11-02T03:13:51.628Z,100.00
2022-11-02T03:19:12.634Z,100.00
2022-11-02T03:24:21.016Z,100.00
2022-11-02T03:29:29.657Z,100.00
2022-11-02T03:34:37.466Z,100.00
2022-11-02T03:39:47.013Z,100.00
2022-11-02T03:44:57.243Z,100.00
2022-11-02T03:50:06.135Z,100.00
2022-11-02T03:55:12.820Z,100.00
2022-11-02T04:00:19.527Z,100.00
2022-11-02T04:05:33.064Z,100.00
2022-11-02T04:10:57.447Z,100.00
2022-11-02T04:16:01.287Z,100.00
2022-11-02T04:21:06.693Z,100.00
2022-11-02T04:26:10.424Z,100.00
2022-11-02T04:31:15.550Z,100.00
2022-11-02T04:36:20.785Z,100.00
2022-11-02T04:41:45.272Z,100.00
2022-11-02T04:46:52.727Z,100.00
2022-11-02T04:51:58.146Z,100.00
2022-11-02T04:57:02.610Z,100.00
2022-11-02T05:02:06.960Z,100.00
2022-11-02T05:07:13.462Z,100.00
2022-11-02T05:12:17.341Z,100.00
2022-11-02T05:17:21.281Z,100.00
2022-11-02T05:22:26.503Z,100.00
2022-11-02T05:27:30.291Z,100.00
2022-11-02T05:32:34.227Z,100.00
2022-11-02T05:37:40.084Z,100.00
2022-11-02T05:42:44.188Z,100.00
2022-11-02T05:47:48.237Z,100.00
2022-11-02T05:52:53.241Z,100.00
2022-11-02T05:57:57.079Z,100.00
2022-11-02T06:03:00.986Z,100.00
2022-11-02T06:08:06.557Z,100.00
2022-11-02T06:13:10.911Z,100.00
2022-11-02T06:18:14.624Z,100.00
2022-11-02T06:23:19.597Z,100.00
2022-11-02T06:28:23.789Z,100.00
2022-11-02T06:33:29.656Z,100.00
2022-11-02T06:38:35.038Z,100.00
2022-11-02T06:43:39.050Z,100.00
2022-11-02T06:48:42.723Z,100.00
2022-11-02T06:53:47.765Z,100.00
2022-11-02T06:58:51.460Z,100.00
2022-11-02T07:03:55.142Z,100.00
2022-11-02T07:09:00.156Z,100.00
2022-11-02T07:14:03.891Z,100.00
2022-11-02T07:19:07.585Z,100.00
2022-11-02T07:24:12.700Z,100.00
2022-11-02T07:29:16.413Z,100.00
2022-11-02T07:34:20.136Z,100.00
2022-11-02T07:39:26.202Z,100.00
2022-11-02T07:44:30.992Z,100.00
2022-11-02T07:49:34.682Z,100.00
2022-11-02T07:54:44.428Z,100.00
2022-11-02T07:59:48.517Z,100.00
2022-11-02T08:04:52.202Z,100.00
2022-11-02T08:09:57.158Z,100.00
2022-11-02T08:15:06.323Z,100.00
2022-11-02T08:20:11.965Z,100.00
2022-11-02T08:25:17.063Z,100.00
2022-11-02T08:30:20.773Z,100.00
2022-11-02T08:35:24.457Z,100.00
2022-11-02T08:40:29.550Z,100.00
2022-11-02T08:46:08.377Z,100.00
2022-11-02T08:50:58.779Z,100.00
2022-11-02T08:56:03.986Z,100.00
2022-11-02T09:01:07.654Z,100.00
2022-11-02T09:06:11.310Z,100.00
2022-11-02T09:11:16.432Z,100.00
2022-11-02T09:16:20.198Z,100.00
2022-11-02T09:21:23.884Z,100.00
2022-11-02T09:26:28.899Z,100.00
2022-11-02T09:31:32.588Z,100.00
2022-11-02T09:36:36.282Z,100.00
2022-11-02T09:41:47.532Z,100.00
2022-11-02T09:47:28.066Z,100.00
2022-11-02T09:52:22.508Z,100.00
2022-11-02T09:57:33.119Z,100.00
2022-11-02T10:02:52.170Z,100.00
2022-11-02T10:08:21.155Z,100.00
2022-11-02T10:13:35.602Z,100.00
2022-11-02T10:18:41.526Z,100.00
2022-11-02T10:23:51.071Z,100.00
2022-11-02T10:29:00.056Z,100.00
2022-11-02T10:34:18.297Z,100.00
2022-11-02T10:39:31.344Z,100.00
2022-11-02T10:44:51.751Z,100.00
2022-11-02T10:50:36.411Z,100.00
2022-11-02T10:55:50.695Z,100.00
2022-11-02T11:01:06.498Z,100.00
2022-11-02T11:06:13.558Z,100.00
2022-11-02T11:11:22.430Z,100.00
2022-11-02T11:16:36.513Z,100.00
2022-11-02T11:21:42.354Z,89.87
2022-11-02T11:26:46.049Z,83.94
2022-11-02T11:31:51.203Z,89.18
2022-11-02T11:37:05.051Z,89.59
2022-11-02T11:42:17.511Z,74.64
2022-11-02T11:47:28.609Z,69.17
2022-11-02T11:52:34.572Z,71.44
2022-11-02T12:02:44.868Z,87.00
2022-11-02T12:08:15.277Z,88.99
2022-11-02T12:13:30.340Z,88.68
2022-11-02T12:18:48.568Z,97.78
2022-11-02T12:24:08.693Z,89.56
2022-11-02T12:29:36.907Z,77.94
2022-11-02T12:40:42.919Z,68.07
2022-11-02T12:45:55.161Z,63.84
2022-11-02T12:51:06.031Z,61.45
2022-11-02T12:56:17.722Z,60.08
2022-11-02T13:01:28.991Z,62.73
2022-11-02T13:06:41.028Z,59.71
2022-11-02T13:11:48.146Z,57.20
2022-11-02T13:16:58.401Z,58.82
2022-11-02T13:22:04.861Z,60.11
2022-11-02T13:27:36.794Z,64.71
2022-11-02T13:32:48.204Z,62.16
2022-11-02T13:37:59.773Z,63.35
2022-11-02T13:43:40.701Z,61.86
2022-11-02T13:48:57.503Z,62.18
2022-11-02T13:54:07.107Z,61.15
2022-11-02T13:59:21.539Z,63.08
2022-11-02T14:04:26.768Z,59.86
2022-11-02T14:09:36.789Z,59.33
2022-11-02T14:14:40.546Z,59.42
2022-11-02T14:19:56.874Z,64.23
2022-11-02T14:25:18.899Z,63.92
2022-11-02T14:30:44.114Z,67.09
2022-11-02T14:35:58.615Z,68.33
2022-11-02T14:41:19.455Z,69.46
2022-11-02T14:46:39.788Z,70.01
2022-11-02T14:51:44.841Z,71.60
2022-11-02T14:56:56.451Z,77.96
2022-11-02T15:02:02.951Z,80.49
2022-11-02T15:07:07.277Z,84.40
2022-11-02T15:12:30.447Z,83.46
2022-11-02T15:17:54.490Z,82.79
2022-11-02T15:23:09.730Z,87.89
2022-11-02T15:28:20.550Z,87.37
2022-11-02T15:33:37.510Z,87.96
2022-11-02T15:38:41.523Z,89.73
2022-11-02T15:44:10.001Z,89.74
2022-11-02T15:49:30.379Z,87.85
2022-11-02T15:55:04.651Z,89.22
2022-11-02T16:00:17.810Z,91.28
2022-11-02T16:05:23.974Z,90.79
2022-11-02T16:10:29.839Z,93.16
2022-11-02T16:15:35.184Z,93.06
2022-11-02T16:20:39.944Z,95.87
2022-11-02T16:25:46.765Z,94.58
2022-11-02T16:31:06.488Z,98.29
2022-11-02T16:36:17.461Z,100.00
2022-11-02T16:41:21.513Z,99.40
2022-11-02T16:46:32.490Z,100.00
2022-11-02T16:51:36.585Z,100.00
2022-11-02T16:56:40.388Z,100.00
2022-11-02T17:01:45.623Z,100.00
2022-11-02T17:06:51.738Z,100.00
2022-11-02T17:11:58.800Z,100.00
2022-11-02T17:17:08.017Z,100.00
2022-11-02T17:22:15.339Z,100.00
2022-11-02T17:27:25.588Z,100.00
2022-11-02T17:32:30.663Z,100.00
2022-11-02T17:37:34.631Z,100.00
2022-11-02T17:42:55.905Z,100.00
2022-11-02T17:48:02.376Z,100.00
2022-11-02T17:53:07.306Z,100.00
2022-11-02T17:58:13.710Z,100.00
2022-11-02T18:03:22.351Z,100.00
2022-11-02T18:08:28.053Z,100.00
2022-11-02T18:13:31.770Z,100.00
2022-11-02T18:18:36.862Z,100.00
2022-11-02T18:23:41.465Z,100.00
2022-11-02T18:28:45.153Z,100.00
2022-11-02T18:33:52.444Z,100.00
2022-11-02T18:38:56.166Z,100.00
2022-11-02T18:44:04.826Z,100.00
2022-11-02T18:49:11.986Z,100.00
2022-11-02T18:54:16.878Z,100.00
2022-11-02T18:59:20.649Z,100.00
2022-11-02T19:04:25.873Z,100.00
2022-11-02T19:09:31.617Z,100.00
2022-11-02T19:14:37.123Z,100.00
2022-11-02T19:19:43.303Z,100.00
2022-11-02T19:24:47.303Z,100.00
2022-11-02T19:29:51.648Z,100.00
2022-11-02T19:34:56.687Z,100.00
2022-11-02T19:40:00.408Z,100.00
2022-11-02T19:45:04.310Z,100.00
2022-11-02T19:50:09.561Z,100.00
2022-11-02T19:55:13.186Z,100.00
2022-11-02T20:00:17.761Z,100.00
2022-11-02T20:05:22.845Z,100.00
2022-11-02T20:10:26.609Z,100.00
2022-11-02T20:15:30.280Z,100.00
2022-11-02T20:20:35.454Z,100.00
2022-11-02T20:25:39.143Z,100.00
2022-11-02T20:30:43.350Z,100.00
2022-11-02T20:35:48.701Z,100.00
2022-11-02T20:40:52.450Z,100.00
2022-11-02T20:51:27.878Z,100.00
2022-11-02T20:56:31.622Z,100.00
2022-11-02T21:01:35.888Z,100.00
2022-11-02T21:06:41.079Z,100.00
2022-11-02T21:12:02.234Z,100.00
2022-11-02T21:17:06.752Z,100.00
2022-11-02T21:22:12.859Z,100.00
2022-11-02T21:27:20.492Z,100.00
2022-11-02T21:32:25.331Z,100.00
2022-11-02T21:37:30.330Z,100.00
2022-11-02T21:42:33.989Z,100.00
2022-11-02T21:47:37.650Z,100.00
2022-11-02T21:52:45.169Z,100.00
2022-11-02T21:57:49.123Z,100.00
2022-11-02T22:02:52.876Z,100.00
2022-11-02T22:08:15.641Z,100.00
2022-11-02T22:13:34.569Z,100.00
2022-11-02T22:18:38.526Z,100.00
2022-11-02T22:23:45.454Z,100.00
2022-11-02T22:28:49.843Z,100.00
2022-11-02T22:33:55.086Z,100.00
2022-11-02T22:39:01.592Z,100.00
2022-11-02T22:44:06.914Z,100.00
2022-11-02T22:49:12.367Z,100.00
2022-11-02T22:54:19.097Z,100.00
2022-11-02T22:59:22.811Z,100.00
2022-11-02T23:04:26.555Z,100.00
2022-11-02T23:09:31.599Z,100.00
2022-11-02T23:14:35.308Z,100.00
2022-11-02T23:19:39.352Z,100.00
2022-11-02T23:25:03.767Z,100.00
2022-11-02T23:30:26.050Z,100.00
2022-11-02T23:35:47.299Z,100.00
2022-11-02T23:40:55.639Z,100.00
2022-11-02T23:45:59.288Z,100.00
2022-11-02T23:51:20.727Z,100.00
2022-11-02T23:56:52.270Z,100.00
